Mc Clellan-Palomar Airport
KCRQ : now visible

Airfield :











YOU CAN JOIN US ON...

 
LOGIN :

Register | Disclaimer

   EN    FR    IT 

 









Legend :    VFR   Marginal VFR   IFR   Intensive IFR   Very Intensive IFR
Visi :
Ceiling :
>= 8 km
>= 3000ft
5 to 8 km
1000 to 3000 ft
1500m to 5 km
500 to 1000 ft
800 to 1500m
200 to 500 ft
< 800m
< 200 ft
Symbols :   Thunderstorms  Fog  Heavy snow  Heavy precipitations  Wind > 20 kt






- Airport Elevation : 331 ft


KCRQ - Mc Clellan-Palomar

CURRENT METAR :
  • 260853Z AUTO 00000KT 1 1/4SM BR OVC002 12/12 A3011 RMK AO2 SLP197 T01220117 58003 $

EXPIRED METARs :
  • 260753Z AUTO 18003KT 1SM R24/P6000FT BR OVC002 12/12 A3012 RMK AO2 SLP200 T01170117 401500094 $
  • 260738Z AUTO 00000KT 3/4SM R24/4000V6000FT BR OVC002 12/12 A3013 RMK AO2 T01170117 $
  • 260653Z AUTO 00000KT 1 1/4SM BR OVC002 12/12 A3012 RMK AO2 SLP199 T01170117 $
  • 260629Z AUTO 00000KT 1 1/2SM BR OVC003 12/12 A3012 RMK AO2 T01170117 $

TAF KCRQ
Valid from the 26 at 09:00 until the 27 at 06:00 UTC


260842Z 2609/2706 VRB03KT 1SM BR VCFG BKN002
FM261000 VRB03KT 1/2SM FG VV002
FM261500 VRB04KT 2SM BR BKN005
FM261700 VRB04KT 4SM BR BKN008
FM261800 26006KT 5SM HZ SCT250
FM270200 VRB04KT 3SM BR BKN008



MET'MAP, your aeronautical weather chart ! - Copyright ORBIFLY December 2007 - Disclaimer

ORBIFLY MET'MAP TEAM :

Programming & Development : Alexandra Zaïnal
Concept & original design : Baudouin d'Aumeries
Assistance for programming : Marc-Olivier Méhu
Technical & hardware support : Manuel Goepfert

Contact : metmap@orbifly.com




SOURCES & CREDITS :

   NOAA       Earth
Advisory